Time;durP1;ratioP1;P1;durP2;ratioP2;P2;SDS_P1;SDS_P2;PMS_P1;PMS_P2;Temp;Humidity;BMP_temperature;BMP_pressure;BME280_temperature;BME280_humidity;BME280_pressure;Samples;Min_cycle;Max_cycle;Signal;HPM_P1;HPM_P2
2021/09/12 00:01:16;;;;;;;6.90;6.03;;;16.40;99.90;;;;;;5031795;28;20217;-49
2021/09/12 00:03:42;;;;;;;7.10;6.40;;;16.40;99.90;;;;;;5021546;28;20183;-50
2021/09/12 00:06:07;;;;;;;7.07;6.37;;;16.20;99.90;;;;;;5026344;28;20202;-49
2021/09/12 00:08:33;;;;;;;6.60;6.00;;;16.10;99.90;;;;;;5025575;28;20206;-48
2021/09/12 00:10:58;;;;;;;7.80;7.10;;;16.00;99.90;;;;;;5032340;28;20190;-49
2021/09/12 00:13:24;;;;;;;6.77;5.80;;;16.00;99.90;;;;;;5026960;28;20251;-50
2021/09/12 00:15:50;;;;;;;6.20;5.60;;;16.00;99.90;;;;;;5034000;28;20308;-49
2021/09/12 00:18:16;;;;;;;6.40;5.80;;;16.20;99.90;;;;;;5030292;28;20214;-49
2021/09/12 00:20:41;;;;;;;6.43;5.93;;;16.00;99.90;;;;;;5030783;28;20186;-49
2021/09/12 00:23:07;;;;;;;6.70;6.10;;;16.00;99.90;;;;;;5031361;28;20530;-49
2021/09/12 00:25:32;;;;;;;6.70;6.10;;;16.00;99.90;;;;;;5037417;28;20281;-50
2021/09/12 00:27:58;;;;;;;5.80;5.30;;;16.10;99.90;;;;;;5029664;28;20257;-49
2021/09/12 00:30:24;;;;;;;4.90;4.50;;;16.00;99.90;;;;;;5035775;28;20186;-48
2021/09/12 00:32:49;;;;;;;6.03;5.53;;;16.20;99.90;;;;;;5039202;28;20201;-49
2021/09/12 00:35:15;;;;;;;5.80;5.30;;;15.90;99.90;;;;;;5029378;28;20606;-49
2021/09/12 00:37:43;;;;;;;6.00;5.40;;;16.00;99.90;;;;;;5023707;28;20300;-49
2021/09/12 00:40:09;;;;;;;5.80;5.30;;;16.30;99.90;;;;;;5028281;28;20193;-51
2021/09/12 00:42:35;;;;;;;6.75;5.78;;;16.10;99.90;;;;;;5029603;28;20182;-49
2021/09/12 00:45:00;;;;;;;5.43;4.93;;;15.90;99.90;;;;;;5031699;28;20193;-50
2021/09/12 00:47:26;;;;;;;7.10;6.30;;;16.10;99.90;;;;;;5031387;28;20213;-49
2021/09/12 00:49:51;;;;;;;6.00;5.50;;;15.80;99.90;;;;;;5031859;28;20198;-49
2021/09/12 00:52:18;;;;;;;5.60;5.10;;;15.90;99.90;;;;;;5030488;28;20857;-50
2021/09/12 00:54:45;;;;;;;5.63;5.13;;;15.90;99.90;;;;;;5040093;28;20272;-49
2021/09/12 00:57:12;;;;;;;5.72;5.22;;;15.80;99.90;;;;;;5032494;28;20755;-49
2021/09/12 00:59:40;;;;;;;6.38;5.35;;;16.10;99.90;;;;;;5032166;28;20230;-49
2021/09/12 01:02:08;;;;;;;6.35;4.85;;;15.80;99.90;;;;;;5031025;28;20611;-50
2021/09/12 01:04:35;;;;;;;5.40;5.00;;;16.10;99.90;;;;;;5028351;28;20186;-50
2021/09/12 01:07:02;;;;;;;5.43;4.80;;;15.70;99.90;;;;;;5030391;28;20210;-49
2021/09/12 01:09:30;;;;;;;5.28;4.78;;;15.90;99.90;;;;;;5033739;28;20635;-49
2021/09/12 01:11:58;;;;;;;6.35;4.70;;;15.80;99.90;;;;;;5037895;28;20189;-50
2021/09/12 01:14:26;;;;;;;6.00;5.03;;;15.70;99.90;;;;;;5026297;28;20270;-49
2021/09/12 01:16:51;;;;;;;5.93;5.43;;;15.60;99.90;;;;;;5044702;28;20443;-50
2021/09/12 01:19:17;;;;;;;5.83;5.33;;;15.60;99.90;;;;;;5030171;28;20595;-49
2021/09/12 01:21:43;;;;;;;5.93;4.73;;;15.60;99.90;;;;;;5029362;28;20450;-49
2021/09/12 01:24:09;;;;;;;6.33;4.87;;;15.90;99.90;;;;;;5039551;28;20269;-50
2021/09/12 01:26:34;;;;;;;5.80;4.67;;;15.70;99.90;;;;;;5029947;28;20186;-49
2021/09/12 01:29:00;;;;;;;4.53;4.13;;;15.70;99.90;;;;;;5029048;28;20471;-50
2021/09/12 01:31:28;;;;;;;5.30;4.33;;;15.90;99.90;;;;;;5030701;28;20674;-49
2021/09/12 01:33:55;;;;;;;7.25;4.80;;;15.90;99.90;;;;;;5030784;28;20249;-49
2021/09/12 01:36:20;;;;;;;4.88;4.40;;;15.70;99.90;;;;;;5029526;28;20182;-50
2021/09/12 01:38:47;;;;;;;4.60;4.20;;;15.90;99.90;;;;;;5032488;28;20232;-49
2021/09/12 01:41:13;;;;;;;5.15;4.65;;;15.80;99.90;;;;;;5030182;28;20217;-49
2021/09/12 01:44:05;;;;;;;5.13;4.60;;;15.70;99.90;;;;;;5024890;28;20183;-49
2021/09/12 01:46:32;;;;;;;5.25;4.75;;;15.60;99.90;;;;;;5030097;28;20210;-49
2021/09/12 01:49:03;;;;;;;5.30;4.88;;;15.50;99.90;;;;;;5030167;28;20243;-49
2021/09/12 01:51:30;;;;;;;5.25;4.75;;;15.60;99.90;;;;;;5025968;28;20198;-49
2021/09/12 01:53:55;;;;;;;5.22;4.72;;;15.60;99.90;;;;;;5030279;28;20205;-48
2021/09/12 01:56:21;;;;;;;6.33;4.87;;;15.40;99.90;;;;;;5034834;28;20182;-50
2021/09/12 01:58:46;;;;;;;6.63;5.30;;;15.50;99.90;;;;;;5028044;28;20304;-49
2021/09/12 02:01:12;;;;;;;5.07;4.67;;;15.30;99.90;;;;;;5027589;28;20288;-49
2021/09/12 02:03:37;;;;;;;5.17;4.77;;;15.40;99.90;;;;;;5029841;28;20205;-49
2021/09/12 02:06:03;;;;;;;5.10;4.70;;;15.30;99.90;;;;;;5028515;28;20198;-49
2021/09/12 02:08:28;;;;;;;5.60;5.10;;;15.50;99.90;;;;;;5036053;28;20210;-49
2021/09/12 02:10:54;;;;;;;5.33;4.93;;;15.50;99.90;;;;;;5027374;28;20190;-50
2021/09/12 02:13:20;;;;;;;7.27;5.10;;;15.30;99.90;;;;;;5022549;28;20210;-49
2021/09/12 02:15:45;;;;;;;5.50;5.10;;;15.30;99.90;;;;;;5029700;28;20201;-49
2021/09/12 02:18:11;;;;;;;5.90;5.40;;;15.10;99.90;;;;;;5028374;28;20218;-49
2021/09/12 02:20:38;;;;;;;5.53;5.03;;;15.20;99.90;;;;;;5037258;28;20285;-48
2021/09/12 02:23:05;;;;;;;6.18;4.72;;;15.00;99.90;;;;;;5030498;28;20190;-49
2021/09/12 02:25:30;;;;;;;5.68;4.80;;;15.20;99.90;;;;;;5030123;28;20236;-50
2021/09/12 02:27:56;;;;;;;5.67;5.27;;;15.40;99.90;;;;;;5027365;28;20213;-50
2021/09/12 02:30:22;;;;;;;5.20;4.70;;;15.20;99.90;;;;;;5029869;28;20182;-50
2021/09/12 02:32:47;;;;;;;6.47;5.07;;;15.20;99.90;;;;;;5030185;28;20663;-50
2021/09/12 02:35:13;;;;;;;5.50;5.07;;;15.40;99.90;;;;;;5033659;28;20292;-50
2021/09/12 02:37:38;;;;;;;5.53;5.13;;;15.10;99.90;;;;;;5030212;28;20210;-50
2021/09/12 02:40:05;;;;;;;5.30;4.80;;;15.30;99.90;;;;;;5036240;28;20193;-50
2021/09/12 02:42:30;;;;;;;6.10;5.60;;;15.20;99.90;;;;;;5027208;28;20187;-49
2021/09/12 02:44:56;;;;;;;6.07;5.23;;;15.30;99.90;;;;;;5030475;28;20197;-50
2021/09/12 02:47:21;;;;;;;5.70;5.20;;;15.10;99.90;;;;;;5037737;28;20206;-50
2021/09/12 02:49:47;;;;;;;6.10;4.27;;;15.30;99.90;;;;;;5025865;28;20277;-49
2021/09/12 02:52:13;;;;;;;4.60;4.20;;;14.90;99.90;;;;;;5033641;28;20265;-50
2021/09/12 02:54:38;;;;;;;5.50;5.00;;;15.00;99.90;;;;;;5033962;28;20182;-49
2021/09/12 02:57:04;;;;;;;5.27;4.77;;;14.90;99.90;;;;;;5030948;28;20460;-49
2021/09/12 02:59:30;;;;;;;5.53;4.93;;;14.60;99.90;;;;;;5030956;28;20213;-49
2021/09/12 03:01:56;;;;;;;4.70;4.30;;;14.70;99.90;;;;;;5033294;28;20463;-49
2021/09/12 03:04:21;;;;;;;5.60;5.10;;;14.80;99.90;;;;;;5033425;28;20662;-49
2021/09/12 03:06:47;;;;;;;6.03;5.00;;;14.80;99.90;;;;;;5023342;28;20217;-49
2021/09/12 03:09:12;;;;;;;5.47;4.90;;;14.90;99.90;;;;;;5047293;28;20208;-49
2021/09/12 03:11:38;;;;;;;5.70;5.10;;;14.90;99.90;;;;;;5052525;28;20268;-49
2021/09/12 03:14:04;;;;;;;4.83;4.43;;;15.00;99.90;;;;;;5034134;28;20537;-49
2021/09/12 03:16:29;;;;;;;5.20;4.60;;;14.80;99.90;;;;;;5052591;28;20315;-50
2021/09/12 03:18:55;;;;;;;6.70;4.80;;;14.80;99.90;;;;;;5035200;28;20245;-49
2021/09/12 03:21:21;;;;;;;5.53;4.80;;;14.90;99.90;;;;;;5028275;28;20179;-50
2021/09/12 03:23:46;;;;;;;5.40;5.00;;;14.80;99.90;;;;;;5028705;28;20253;-49
2021/09/12 03:26:13;;;;;;;5.50;5.00;;;14.90;99.90;;;;;;5026816;28;20190;-49
2021/09/12 03:28:38;;;;;;;5.13;4.60;;;14.80;99.90;;;;;;5029981;28;20210;-49
2021/09/12 03:31:05;;;;;;;6.20;5.60;;;14.70;99.90;;;;;;5032884;28;20198;-50
2021/09/12 03:33:31;;;;;;;5.20;4.80;;;14.80;99.90;;;;;;5041118;28;20222;-49
2021/09/12 03:35:57;;;;;;;5.95;5.10;;;14.70;99.90;;;;;;5037395;28;20212;-49
2021/09/12 03:38:22;;;;;;;6.40;5.37;;;14.70;99.90;;;;;;5028956;28;20210;-49
2021/09/12 03:40:48;;;;;;;5.43;4.70;;;14.80;99.90;;;;;;5033172;28;20444;-49
2021/09/12 03:43:14;;;;;;;5.73;4.93;;;14.70;99.90;;;;;;5030313;28;20190;-49
2021/09/12 03:45:39;;;;;;;6.17;5.07;;;14.80;99.90;;;;;;5032553;28;20182;-49
2021/09/12 03:48:05;;;;;;;7.40;4.93;;;14.50;99.90;;;;;;5036680;28;20290;-49
2021/09/12 03:50:31;;;;;;;5.55;4.95;;;14.70;99.90;;;;;;5033256;28;20186;-50
2021/09/12 03:52:57;;;;;;;6.30;4.67;;;14.30;99.90;;;;;;5031332;28;20186;-49
2021/09/12 03:55:23;;;;;;;5.90;5.40;;;14.50;99.90;;;;;;5031915;28;20495;-49
2021/09/12 03:57:49;;;;;;;4.60;4.20;;;14.40;99.90;;;;;;5027407;28;20533;-49
2021/09/12 04:00:15;;;;;;;5.97;4.80;;;14.70;99.90;;;;;;5030716;28;20190;-49
2021/09/12 04:02:42;;;;;;;5.35;4.95;;;14.50;99.90;;;;;;5039480;28;20686;-49
2021/09/12 04:05:08;;;;;;;5.45;4.95;;;14.30;99.90;;;;;;5036764;28;20301;-48
2021/09/12 04:07:33;;;;;;;5.20;4.78;;;14.50;99.90;;;;;;5032143;28;20205;-49
2021/09/12 04:09:59;;;;;;;5.30;4.80;;;14.50;99.90;;;;;;5037356;28;20673;-49
2021/09/12 04:12:24;;;;;;;4.77;4.37;;;14.50;99.90;;;;;;5027794;28;20196;-49
2021/09/12 04:14:50;;;;;;;5.63;5.13;;;14.30;99.90;;;;;;5031793;28;20182;-49
2021/09/12 04:17:16;;;;;;;5.67;4.17;;;14.40;99.90;;;;;;5034118;28;20287;-48
2021/09/12 04:19:41;;;;;;;4.70;4.30;;;14.60;99.90;;;;;;5031708;28;20320;-49
2021/09/12 04:22:07;;;;;;;5.60;5.10;;;14.30;99.90;;;;;;5029815;28;20182;-49
2021/09/12 04:24:33;;;;;;;4.40;4.10;;;14.40;99.90;;;;;;5031773;28;20655;-49
2021/09/12 04:26:58;;;;;;;5.60;5.10;;;14.30;99.90;;;;;;5032935;28;20675;-49
2021/09/12 04:29:24;;;;;;;4.60;4.20;;;14.20;99.90;;;;;;5029928;28;20190;-49
2021/09/12 04:31:49;;;;;;;4.57;4.20;;;14.40;99.90;;;;;;5025722;28;20282;-49
2021/09/12 04:34:15;;;;;;;4.67;4.27;;;14.30;99.90;;;;;;5030891;28;20207;-49
2021/09/12 04:36:41;;;;;;;4.90;4.50;;;14.40;99.90;;;;;;5026109;28;20190;-50
2021/09/12 04:39:07;;;;;;;4.73;4.33;;;14.10;99.90;;;;;;5029711;28;20464;-49
2021/09/12 04:41:33;;;;;;;5.40;4.90;;;14.30;99.90;;;;;;5030731;28;20232;-49
2021/09/12 04:43:58;;;;;;;5.07;4.57;;;14.10;99.90;;;;;;5024332;28;20957;-48
2021/09/12 04:46:24;;;;;;;4.37;3.97;;;14.10;99.90;;;;;;5036337;28;20185;-49
2021/09/12 04:48:50;;;;;;;4.43;4.10;;;14.30;99.90;;;;;;5027195;28;20442;-49
2021/09/12 04:51:15;;;;;;;4.97;4.57;;;14.30;99.90;;;;;;5020606;28;20193;-49
2021/09/12 04:53:41;;;;;;;5.03;4.57;;;14.10;99.90;;;;;;5032453;28;20198;-48
2021/09/12 04:56:06;;;;;;;7.77;4.80;;;14.30;99.90;;;;;;5033926;28;20348;-49
2021/09/12 04:58:32;;;;;;;5.20;4.70;;;14.00;99.90;;;;;;5026261;28;20323;-48
2021/09/12 05:00:58;;;;;;;7.53;4.27;;;14.00;99.90;;;;;;5029504;28;20186;-48
2021/09/12 05:03:23;;;;;;;4.33;3.93;;;14.10;99.90;;;;;;5029606;28;20859;-49
2021/09/12 05:05:49;;;;;;;5.27;4.87;;;13.90;99.90;;;;;;5027251;28;20236;-48
2021/09/12 05:08:15;;;;;;;4.73;4.37;;;14.10;99.90;;;;;;5035514;28;20628;-48
2021/09/12 05:10:40;;;;;;;4.63;4.30;;;14.00;99.90;;;;;;5034502;28;20660;-49
2021/09/12 05:13:06;;;;;;;4.67;4.27;;;13.70;99.90;;;;;;5025136;28;20235;-48
2021/09/12 05:15:31;;;;;;;4.53;4.13;;;14.00;99.90;;;;;;5031339;28;20186;-49
2021/09/12 05:17:57;;;;;;;4.53;4.23;;;13.80;99.90;;;;;;5032280;28;20220;-48
2021/09/12 05:20:23;;;;;;;4.50;4.10;;;13.90;99.90;;;;;;5017246;28;20185;-49
2021/09/12 05:22:49;;;;;;;6.00;4.20;;;14.00;99.90;;;;;;5019910;28;20633;-49
2021/09/12 05:25:15;;;;;;;5.20;4.30;;;13.80;99.90;;;;;;5025485;28;20210;-49
2021/09/12 05:27:40;;;;;;;4.90;4.50;;;14.00;99.90;;;;;;5021537;28;20293;-49
2021/09/12 05:30:07;;;;;;;4.27;3.87;;;13.80;99.90;;;;;;5031878;28;20186;-49
2021/09/12 05:32:32;;;;;;;4.40;4.00;;;14.00;99.90;;;;;;5030793;28;20191;-49
2021/09/12 05:34:58;;;;;;;6.10;4.40;;;14.20;99.90;;;;;;5028824;28;20330;-49
2021/09/12 05:37:24;;;;;;;5.93;4.07;;;13.90;99.90;;;;;;5029232;28;20260;-49
2021/09/12 05:39:49;;;;;;;4.43;4.10;;;13.90;99.90;;;;;;5028896;28;20439;-49
2021/09/12 05:42:16;;;;;;;4.30;4.00;;;13.80;99.90;;;;;;5027733;28;20207;-49
2021/09/12 05:44:42;;;;;;;5.60;5.10;;;13.90;99.90;;;;;;5033836;28;20272;-49
2021/09/12 05:47:07;;;;;;;5.10;4.60;;;13.70;99.90;;;;;;5031849;28;20198;-48
2021/09/12 05:49:33;;;;;;;5.03;4.63;;;13.80;99.90;;;;;;5023576;28;20245;-50
2021/09/12 05:51:58;;;;;;;4.30;3.57;;;13.90;99.90;;;;;;5028476;28;20225;-49
2021/09/12 05:54:24;;;;;;;4.97;4.47;;;14.10;99.90;;;;;;5023823;28;20209;-49
2021/09/12 05:56:50;;;;;;;4.10;3.70;;;14.20;99.90;;;;;;5029953;28;20301;-49
2021/09/12 05:59:15;;;;;;;5.73;5.23;;;14.30;99.90;;;;;;5024259;28;20297;-49
2021/09/12 06:01:41;;;;;;;4.57;4.17;;;14.40;99.90;;;;;;5030042;28;20193;-49
2021/09/12 06:04:07;;;;;;;4.57;4.17;;;14.30;99.90;;;;;;5028304;28;20472;-49
2021/09/12 06:06:33;;;;;;;5.10;4.60;;;14.30;99.90;;;;;;5022055;28;20684;-49
2021/09/12 06:08:58;;;;;;;6.40;4.60;;;14.40;99.90;;;;;;5028745;28;20205;-50
2021/09/12 06:11:25;;;;;;;5.10;4.63;;;14.40;99.90;;;;;;5028741;28;20199;-49
2021/09/12 06:13:50;;;;;;;5.60;4.15;;;14.30;99.90;;;;;;5022429;28;20281;-49
2021/09/12 06:16:16;;;;;;;5.00;4.60;;;14.60;99.90;;;;;;5030631;28;20185;-49
2021/09/12 06:18:42;;;;;;;5.00;4.50;;;14.60;99.90;;;;;;5029754;28;20213;-50
2021/09/12 06:21:07;;;;;;;4.63;4.23;;;14.80;99.90;;;;;;5034340;28;20217;-49
2021/09/12 06:23:33;;;;;;;4.67;4.20;;;14.80;99.90;;;;;;5029854;28;20186;-49
2021/09/12 06:25:59;;;;;;;4.90;4.50;;;15.00;99.90;;;;;;5034543;28;20224;-49
2021/09/12 06:28:25;;;;;;;4.77;4.17;;;15.00;99.90;;;;;;5029814;28;20309;-49
2021/09/12 06:30:50;;;;;;;5.07;4.67;;;15.10;99.90;;;;;;5024463;28;20215;-49
2021/09/12 06:33:16;;;;;;;4.53;4.20;;;15.00;99.90;;;;;;5029992;28;20240;-49
2021/09/12 06:35:42;;;;;;;5.03;4.53;;;15.30;99.90;;;;;;5029017;28;20460;-49
2021/09/12 06:38:07;;;;;;;5.17;4.30;;;15.50;99.90;;;;;;5026272;28;20496;-49
2021/09/12 06:40:33;;;;;;;4.77;4.37;;;15.60;99.90;;;;;;5027313;28;20186;-50
2021/09/12 06:43:00;;;;;;;5.23;4.73;;;15.80;99.90;;;;;;5023745;28;20216;-49
2021/09/12 06:45:26;;;;;;;5.40;4.90;;;15.80;99.90;;;;;;5038766;28;20186;-49
2021/09/12 06:47:52;;;;;;;4.93;4.40;;;15.70;99.90;;;;;;5030809;28;20297;-49
2021/09/12 06:50:19;;;;;;;5.00;4.50;;;16.00;99.90;;;;;;5035087;28;20193;-49
2021/09/12 06:52:44;;;;;;;4.78;4.38;;;15.90;99.90;;;;;;5024082;28;20197;-49
2021/09/12 06:55:10;;;;;;;4.93;4.53;;;16.00;99.90;;;;;;5028722;28;20277;-48
2021/09/12 06:57:35;;;;;;;5.33;4.83;;;16.20;99.90;;;;;;5026481;28;20209;-50
2021/09/12 07:00:02;;;;;;;6.93;5.43;;;16.30;99.90;;;;;;5033615;28;20193;-49
2021/09/12 07:02:27;;;;;;;5.55;4.00;;;17.00;99.90;;;;;;5032368;28;20186;-50
2021/09/12 07:04:53;;;;;;;5.23;4.03;;;19.20;99.90;;;;;;5030609;28;20277;-50
2021/09/12 07:07:18;;;;;;;4.13;3.73;;;21.30;99.90;;;;;;5023945;28;20260;-50
2021/09/12 07:09:44;;;;;;;3.77;3.40;;;23.20;99.90;;;;;;5027588;28;20634;-51
2021/09/12 07:12:10;;;;;;;3.30;3.10;;;25.80;95.60;;;;;;5027627;28;20190;-51
2021/09/12 07:14:35;;;;;;;3.50;3.20;;;28.10;90.30;;;;;;5024970;28;20193;-49
2021/09/12 07:17:01;;;;;;;3.23;3.03;;;29.00;82.60;;;;;;5021725;28;20261;-51
2021/09/12 07:19:26;;;;;;;3.40;3.20;;;29.60;77.90;;;;;;5030858;28;20301;-51
2021/09/12 07:21:52;;;;;;;4.70;3.60;;;29.00;76.00;;;;;;5031600;28;20191;-51
2021/09/12 07:24:18;;;;;;;3.40;3.10;;;29.90;76.00;;;;;;5013641;28;20190;-50
2021/09/12 07:26:44;;;;;;;3.20;2.90;;;32.10;69.70;;;;;;5027901;28;20448;-51
2021/09/12 07:29:09;;;;;;;3.00;2.80;;;33.50;63.90;;;;;;5022129;28;20711;-51
2021/09/12 07:31:36;;;;;;;3.53;3.33;;;33.80;58.00;;;;;;5030710;28;20186;-50
2021/09/12 07:34:02;;;;;;;3.27;2.97;;;32.60;60.30;;;;;;5037683;28;20683;-50
2021/09/12 07:36:29;;;;;;;3.23;2.93;;;32.30;60.40;;;;;;5032933;28;20440;-51
2021/09/12 07:38:55;;;;;;;3.20;3.00;;;33.70;59.00;;;;;;5031306;28;20522;-51
2021/09/12 07:41:20;;;;;;;3.47;3.27;;;35.00;56.60;;;;;;5035606;28;20473;-49
2021/09/12 07:43:46;;;;;;;3.53;3.23;;;34.90;55.40;;;;;;5027263;28;20679;-51
2021/09/12 07:46:12;;;;;;;3.13;2.93;;;34.80;54.40;;;;;;5021811;28;20190;-50
2021/09/12 07:48:37;;;;;;;3.47;3.27;;;35.20;55.40;;;;;;5029318;28;20531;-51
2021/09/12 07:51:05;;;;;;;3.60;3.40;;;34.80;53.40;;;;;;5029601;28;20195;-51
2021/09/12 07:53:31;;;;;;;4.53;3.77;;;35.30;52.40;;;;;;5033545;28;20197;-51
2021/09/12 07:55:57;;;;;;;3.53;3.33;;;35.00;52.80;;;;;;5033987;28;20436;-50
2021/09/12 07:58:22;;;;;;;2.87;2.67;;;34.60;53.00;;;;;;5026231;28;20218;-51
2021/09/12 08:00:48;;;;;;;3.67;3.40;;;34.50;53.20;;;;;;5033581;28;20205;-51
2021/09/12 08:03:14;;;;;;;3.80;3.00;;;35.20;51.40;;;;;;5030220;28;20209;-52
2021/09/12 08:05:39;;;;;;;4.03;3.23;;;35.20;51.50;;;;;;5031271;28;20186;-53
2021/09/12 08:08:05;;;;;;;5.00;3.17;;;35.00;52.00;;;;;;5030948;28;20293;-52
2021/09/12 08:10:31;;;;;;;2.90;2.70;;;34.40;51.80;;;;;;5031850;28;20284;-52
2021/09/12 08:12:56;;;;;;;3.97;3.47;;;34.90;51.60;;;;;;5026262;28;20715;-51
2021/09/12 08:15:22;;;;;;;3.57;3.30;;;36.10;49.60;;;;;;5031902;28;20190;-51
2021/09/12 08:17:47;;;;;;;3.80;3.27;;;35.00;49.50;;;;;;5026765;28;20381;-51
2021/09/12 08:20:13;;;;;;;3.20;2.90;;;35.00;50.30;;;;;;5024023;28;20530;-52
2021/09/12 08:22:39;;;;;;;3.43;3.20;;;35.30;50.50;;;;;;5029653;28;20289;-51
2021/09/12 08:25:05;;;;;;;3.90;3.60;;;34.10;51.20;;;;;;5032236;28;20190;-51
2021/09/12 08:27:31;;;;;;;3.20;3.00;;;34.60;51.40;;;;;;5029493;28;20467;-52
2021/09/12 08:29:57;;;;;;;3.23;3.03;;;34.60;50.20;;;;;;5031539;28;20445;-52
2021/09/12 08:32:22;;;;;;;3.27;3.07;;;35.10;49.70;;;;;;5031356;28;20240;-52
2021/09/12 08:34:48;;;;;;;3.00;2.80;;;34.20;50.60;;;;;;5036162;28;20240;-52
2021/09/12 08:37:14;;;;;;;3.00;2.80;;;36.30;49.00;;;;;;5029292;28;20255;-52
2021/09/12 08:39:39;;;;;;;3.33;3.10;;;37.90;46.50;;;;;;5038038;28;20228;-52
2021/09/12 08:42:05;;;;;;;3.27;3.07;;;38.60;44.60;;;;;;5030738;28;20285;-51
2021/09/12 08:44:33;;;;;;;3.60;3.30;;;36.20;44.60;;;;;;5033774;28;20248;-50
2021/09/12 08:46:59;;;;;;;3.67;3.33;;;34.60;49.20;;;;;;5030791;28;20487;-51
2021/09/12 08:49:25;;;;;;;3.47;3.27;;;33.10;50.90;;;;;;5026247;28;20854;-51
2021/09/12 08:51:50;;;;;;;3.17;2.97;;;30.60;53.10;;;;;;5025470;28;20191;-50
2021/09/12 08:54:16;;;;;;;3.60;3.30;;;29.70;57.20;;;;;;5037052;28;20197;-50
2021/09/12 08:56:41;;;;;;;4.00;3.60;;;29.00;59.50;;;;;;5031138;28;20267;-49
2021/09/12 08:59:27;;;;;;;3.13;2.93;;;28.50;60.50;;;;;;5026614;28;20221;-51
2021/09/12 09:01:58;;;;;;;3.27;2.97;;;27.20;63.20;;;;;;5027894;28;20190;-52
2021/09/12 09:04:32;;;;;;;3.40;3.20;;;25.90;70.20;;;;;;5028307;28;20452;-51
2021/09/12 09:07:09;;;;;;;2.73;2.53;;;25.80;71.80;;;;;;5027694;28;20826;-50
2021/09/12 09:09:42;;;;;;;2.73;2.53;;;25.20;73.00;;;;;;5029763;28;20457;-50
2021/09/12 09:12:37;;;;;;;4.60;2.50;;;25.20;72.00;;;;;;5024447;28;21046;-49
2021/09/12 09:15:03;;;;;;;2.27;2.07;;;25.10;73.20;;;;;;5029077;28;20503;-49
2021/09/12 09:17:28;;;;;;;4.07;2.43;;;25.00;73.50;;;;;;5030605;28;20463;-50
2021/09/12 09:19:55;;;;;;;2.10;2.00;;;24.90;75.60;;;;;;5030263;28;20233;-50
2021/09/12 09:22:31;;;;;;;2.37;2.20;;;25.10;72.60;;;;;;5020608;28;20224;-50
2021/09/12 09:25:08;;;;;;;2.40;2.30;;;25.00;73.20;;;;;;5030973;28;20447;-50
2021/09/12 09:27:57;;;;;;;3.83;3.50;;;25.00;75.00;;;;;;5023985;28;20468;-49
2021/09/12 09:30:24;;;;;;;3.20;2.70;;;25.00;77.60;;;;;;5026449;28;20444;-50
2021/09/12 09:32:49;;;;;;;2.93;2.43;;;24.70;76.90;;;;;;5027959;28;20453;-49
2021/09/12 09:35:23;;;;;;;2.33;2.13;;;24.50;77.80;;;;;;5029358;28;20453;-50
2021/09/12 09:37:50;;;;;;;2.73;2.53;;;24.30;76.90;;;;;;5024678;28;20223;-50
2021/09/12 09:40:15;;;;;;;2.63;2.43;;;24.20;79.20;;;;;;5030251;28;20445;-50
2021/09/12 09:42:43;;;;;;;2.60;2.40;;;24.20;79.80;;;;;;5030467;28;20453;-49
2021/09/12 09:45:09;;;;;;;3.30;3.10;;;24.40;76.80;;;;;;5025135;28;20187;-49
2021/09/12 09:47:36;;;;;;;2.97;2.40;;;24.60;77.60;;;;;;5030613;28;20462;-50
2021/09/12 09:50:17;;;;;;;2.63;2.37;;;25.70;72.60;;;;;;5032828;28;20178;-52
2021/09/12 09:52:46;;;;;;;2.87;2.67;;;26.10;70.00;;;;;;5031848;28;20475;-50
2021/09/12 09:55:15;;;;;;;2.60;2.40;;;26.10;70.30;;;;;;5026947;28;20488;-50
2021/09/12 09:57:47;;;;;;;3.57;2.20;;;25.80;70.30;;;;;;5025034;28;20865;-51
2021/09/12 10:00:13;;;;;;;3.23;2.93;;;25.70;71.70;;;;;;5027914;28;20471;-50
2021/09/12 10:02:40;;;;;;;2.60;2.40;;;25.10;72.80;;;;;;5029253;28;20446;-51
2021/09/12 10:05:08;;;;;;;3.17;2.87;;;24.90;74.70;;;;;;5036442;28;20459;-49
2021/09/12 10:07:35;;;;;;;2.73;2.53;;;25.00;75.00;;;;;;5027230;28;20494;-49
2021/09/12 10:10:02;;;;;;;3.70;2.70;;;24.90;74.40;;;;;;5019585;28;20450;-49
2021/09/12 10:12:28;;;;;;;2.87;2.53;;;24.90;76.30;;;;;;5025939;28;20824;-50
2021/09/12 10:14:58;;;;;;;3.17;2.87;;;24.80;76.60;;;;;;5030621;28;20813;-50
2021/09/12 10:17:28;;;;;;;3.20;3.00;;;24.70;77.30;;;;;;5028643;28;20523;-50
2021/09/12 10:20:14;;;;;;;4.00;3.03;;;24.50;77.50;;;;;;5029446;28;20483;-51
2021/09/12 10:23:03;;;;;;;2.73;2.53;;;24.40;77.50;;;;;;5030698;28;20436;-51
2021/09/12 10:25:30;;;;;;;2.90;2.70;;;24.40;79.20;;;;;;5022879;28;20958;-51
2021/09/12 10:27:56;;;;;;;2.97;2.73;;;24.30;78.20;;;;;;5033771;28;20471;-51
2021/09/12 10:30:28;;;;;;;3.63;3.43;;;24.40;78.00;;;;;;5022147;28;20441;-51
2021/09/12 10:33:06;;;;;;;2.90;2.70;;;24.40;78.30;;;;;;5029163;28;20194;-50
2021/09/12 10:35:44;;;;;;;3.00;2.80;;;24.40;77.40;;;;;;5026044;28;20551;-50
2021/09/12 10:38:13;;;;;;;3.17;2.87;;;24.40;76.90;;;;;;5020153;28;20487;-50
2021/09/12 10:40:48;;;;;;;3.13;2.93;;;24.00;78.40;;;;;;5026953;28;20454;-51
2021/09/12 10:43:29;;;;;;;3.10;2.90;;;23.80;78.60;;;;;;5026535;28;20478;-51
2021/09/12 10:46:01;;;;;;;2.50;2.40;;;24.10;78.60;;;;;;5025517;28;20440;-51
2021/09/12 10:48:37;;;;;;;2.77;2.57;;;24.30;79.50;;;;;;5028241;28;20599;-50
2021/09/12 10:51:07;;;;;;;3.30;2.80;;;24.50;78.20;;;;;;5022741;28;20441;-50
2021/09/12 10:53:45;;;;;;;2.73;2.53;;;24.50;77.50;;;;;;5032591;28;20441;-48
2021/09/12 10:56:30;;;;;;;3.17;2.97;;;24.40;78.40;;;;;;5031916;28;20864;-49
2021/09/12 10:59:03;;;;;;;2.77;2.57;;;24.10;80.20;;;;;;5026061;28;20480;-50
2021/09/12 11:01:33;;;;;;;3.40;3.17;;;24.10;79.80;;;;;;5030844;28;20445;-51
2021/09/12 11:04:00;;;;;;;2.90;2.70;;;24.10;80.00;;;;;;5031854;28;20531;-51
2021/09/12 11:06:36;;;;;;;3.43;3.13;;;24.10;78.70;;;;;;5031687;28;20436;-51
2021/09/12 11:09:05;;;;;;;2.60;2.40;;;24.40;79.10;;;;;;5031501;28;20432;-52
2021/09/12 11:11:30;;;;;;;2.53;2.33;;;24.70;78.90;;;;;;5026131;28;20440;-52
2021/09/12 11:13:57;;;;;;;2.97;2.77;;;24.90;78.70;;;;;;5024140;28;20523;-51
2021/09/12 11:16:24;;;;;;;2.90;2.60;;;24.70;77.00;;;;;;5030357;28;20674;-51
2021/09/12 11:19:00;;;;;;;2.77;2.57;;;24.70;77.20;;;;;;5028759;28;20468;-52
2021/09/12 11:21:34;;;;;;;3.00;2.80;;;24.70;76.90;;;;;;5026706;28;20451;-52
2021/09/12 11:24:02;;;;;;;2.87;2.67;;;24.60;76.50;;;;;;5022331;28;20433;-52
2021/09/12 11:26:46;;;;;;;3.10;2.90;;;24.40;77.80;;;;;;5031209;28;20866;-52
2021/09/12 11:29:13;;;;;;;3.20;3.00;;;24.30;77.70;;;;;;5025358;28;20460;-51
2021/09/12 11:31:41;;;;;;;3.83;2.93;;;24.50;76.50;;;;;;5026807;28;20539;-52
2021/09/12 11:34:07;;;;;;;3.37;3.00;;;24.90;75.70;;;;;;5029344;28;20483;-52
2021/09/12 11:36:48;;;;;;;2.53;2.37;;;25.00;74.90;;;;;;5022343;28;20488;-52
2021/09/12 11:39:15;;;;;;;3.57;2.30;;;25.20;76.00;;;;;;5029068;28;20527;-52
2021/09/12 11:41:43;;;;;;;3.20;3.00;;;24.90;76.00;;;;;;5024616;28;20934;-52
2021/09/12 11:44:08;;;;;;;3.10;2.80;;;25.00;75.20;;;;;;5028702;28;20442;-52
2021/09/12 11:46:34;;;;;;;3.73;2.60;;;25.10;74.40;;;;;;5039332;28;20441;-51
2021/09/12 11:49:04;;;;;;;2.77;2.57;;;25.10;75.10;;;;;;5031739;28;20210;-51
2021/09/12 11:51:32;;;;;;;2.97;2.77;;;25.10;74.60;;;;;;5027370;28;20447;-51
2021/09/12 11:54:10;;;;;;;3.07;2.87;;;25.20;75.60;;;;;;5031968;28;20462;-52
2021/09/12 11:56:37;;;;;;;3.13;2.87;;;25.10;76.20;;;;;;5025167;28;20821;-52
2021/09/12 11:59:04;;;;;;;2.93;2.73;;;24.90;75.50;;;;;;5027486;28;21002;-51
2021/09/12 12:01:30;;;;;;;3.33;2.80;;;24.80;75.70;;;;;;5026858;28;20473;-51
2021/09/12 12:03:57;;;;;;;2.60;2.40;;;24.80;74.50;;;;;;5021852;28;20938;-51
2021/09/12 12:06:23;;;;;;;2.80;2.60;;;24.70;76.30;;;;;;5025122;28;20194;-51
2021/09/12 12:09:08;;;;;;;3.13;2.93;;;24.90;76.10;;;;;;5022012;28;20882;-52
2021/09/12 12:11:37;;;;;;;2.70;2.23;;;25.10;74.50;;;;;;5022546;28;20504;-52
2021/09/12 12:14:03;;;;;;;2.90;2.63;;;25.10;75.80;;;;;;5026095;28;20446;-51
2021/09/12 12:16:40;;;;;;;3.30;2.80;;;24.90;75.10;;;;;;5031160;28;20445;-51
2021/09/12 12:19:10;;;;;;;2.83;2.63;;;24.90;75.30;;;;;;5030172;28;20894;-51
2021/09/12 12:21:37;;;;;;;2.90;2.70;;;24.90;75.20;;;;;;5035389;28;20445;-52
2021/09/12 12:24:33;;;;;;;3.23;2.93;;;24.80;75.20;;;;;;5027618;28;20468;-51
2021/09/12 12:27:08;;;;;;;3.07;2.87;;;24.80;76.30;;;;;;5026903;28;20467;-51
2021/09/12 12:29:36;;;;;;;3.30;2.60;;;24.70;76.20;;;;;;5017508;28;20451;-51
2021/09/12 12:32:04;;;;;;;2.80;2.60;;;24.70;77.20;;;;;;5033530;28;20451;-52
2021/09/12 12:34:42;;;;;;;3.17;2.97;;;24.90;77.50;;;;;;5030575;28;20483;-51
2021/09/12 12:37:10;;;;;;;3.57;3.30;;;25.10;76.50;;;;;;5027313;28;20471;-51
2021/09/12 12:39:37;;;;;;;3.63;3.33;;;25.20;75.30;;;;;;5019984;28;20469;-52
2021/09/12 12:42:03;;;;;;;3.60;2.47;;;25.10;74.30;;;;;;5028328;28;20441;-52
2021/09/12 12:44:38;;;;;;;3.00;2.70;;;25.00;74.90;;;;;;5034660;28;21009;-52
2021/09/12 12:47:03;;;;;;;4.13;3.83;;;25.00;75.60;;;;;;5032866;28;20985;-52
2021/09/12 12:49:31;;;;;;;3.90;2.70;;;25.20;74.90;;;;;;5029360;28;20452;-52